Time;durP1;ratioP1;P1;durP2;ratioP2;P2;SDS_P1;SDS_P2;PMS_P1;PMS_P2;Temp;Humidity;BMP_temperature;BMP_pressure;BME280_temperature;BME280_humidity;BME280_pressure;Samples;Min_cycle;Max_cycle;Signal;HPM_P1;HPM_P2
2022/09/13 00:00:58;;;;;;;7.30;5.20;;;;;;;;;;5095420;28;20294;-59
2022/09/13 00:03:36;;;;;;;8.43;5.50;;;;;;;;;;5094755;28;20202;-59
2022/09/13 00:06:08;;;;;;;5.32;4.75;;;;;;;;;;5094890;28;20723;-59
2022/09/13 00:08:35;;;;;;;6.57;4.75;;;;;;;;;;5095841;28;20206;-59
2022/09/13 00:11:02;;;;;;;5.43;4.78;;;;;;;;;;5095140;28;20199;-59
2022/09/13 00:13:29;;;;;;;6.95;5.20;;;;;;;;;;5095062;28;20290;-59
2022/09/13 00:15:57;;;;;;;5.82;4.57;;;;;;;;;;5095356;28;20264;-59
2022/09/13 00:18:24;;;;;;;5.32;4.65;;;;;;;;;;5094780;28;20229;-59
2022/09/13 00:20:50;;;;;;;7.55;4.90;;;;;;;;;;5094741;28;20704;-59
2022/09/13 00:23:18;;;;;;;6.93;5.10;;;;;;;;;;5094663;28;20532;-59
2022/09/13 00:25:45;;;;;;;5.10;4.60;;;;;;;;;;5094746;28;20612;-58
2022/09/13 00:28:11;;;;;;;7.35;5.00;;;;;;;;;;5094823;28;20256;-59
2022/09/13 00:30:38;;;;;;;6.47;5.10;;;;;;;;;;5095021;28;20209;-59
2022/09/13 00:33:05;;;;;;;5.93;5.00;;;;;;;;;;5094830;28;20625;-59
2022/09/13 00:35:32;;;;;;;6.70;5.32;;;;;;;;;;5094624;28;20631;-59
2022/09/13 00:38:00;;;;;;;6.60;5.05;;;;;;;;;;5094590;28;20516;-59
2022/09/13 00:40:29;;;;;;;6.00;5.40;;;;;;;;;;5094665;28;20233;-59
2022/09/13 00:42:56;;;;;;;6.00;4.95;;;;;;;;;;5095105;28;20191;-59
2022/09/13 00:45:23;;;;;;;7.40;5.00;;;;;;;;;;5094801;28;20202;-59
2022/09/13 00:47:54;;;;;;;7.10;5.53;;;;;;;;;;5094613;28;20275;-59
2022/09/13 00:50:31;;;;;;;11.70;6.05;;;;;;;;;;5095191;28;20230;-59
2022/09/13 00:53:26;;;;;;;7.68;6.13;;;;;;;;;;5094911;28;20495;-59
2022/09/13 00:55:56;;;;;;;8.82;6.38;;;;;;;;;;5091707;28;20198;-59
2022/09/13 00:58:36;;;;;;;6.93;6.15;;;;;;;;;;5094488;28;20237;-60
2022/09/13 01:01:04;;;;;;;9.77;6.75;;;;;;;;;;5094549;28;20570;-59
2022/09/13 01:03:33;;;;;;;11.75;7.53;;;;;;;;;;5093503;28;20260;-59
2022/09/13 01:06:04;;;;;;;8.10;6.78;;;;;;;;;;5094626;28;20222;-59
2022/09/13 01:08:32;;;;;;;11.38;8.00;;;;;;;;;;5093718;28;20268;-59
2022/09/13 01:11:00;;;;;;;10.30;7.97;;;;;;;;;;5093734;28;20286;-59
2022/09/13 01:13:30;;;;;;;10.75;7.90;;;;;;;;;;5093495;28;20612;-59
2022/09/13 01:15:58;;;;;;;11.10;8.50;;;;;;;;;;5097492;28;20202;-59
2022/09/13 01:18:26;;;;;;;10.95;8.85;;;;;;;;;;5098009;28;20686;-58
2022/09/13 01:21:26;;;;;;;14.32;9.45;;;;;;;;;;5098319;28;20209;-59
2022/09/13 01:24:12;;;;;;;13.35;9.18;;;;;;;;;;5098667;28;20206;-59
2022/09/13 01:26:47;;;;;;;13.40;9.70;;;;;;;;;;5097908;28;20202;-59
2022/09/13 01:29:17;;;;;;;12.40;9.48;;;;;;;;;;5097159;28;20224;-59
2022/09/13 01:32:16;;;;;;;13.85;9.63;;;;;;;;;;5097915;28;20213;-59
2022/09/13 01:35:02;;;;;;;11.38;9.63;;;;;;;;;;5076776;28;20269;-59
2022/09/13 01:37:32;;;;;;;16.38;10.27;;;;;;;;;;5097042;28;20215;-58
2022/09/13 01:40:16;;;;;;;17.10;10.40;;;;;;;;;;5096932;28;20199;-59
2022/09/13 01:42:49;;;;;;;16.38;11.13;;;;;;;;;;5097993;28;20226;-59
2022/09/13 01:45:47;;;;;;;13.85;11.20;;;;;;;;;;5098094;28;20191;-59
2022/09/13 01:48:31;;;;;;;16.90;11.80;;;;;;;;;;5097563;28;20206;-59
2022/09/13 01:50:59;;;;;;;14.32;11.95;;;;;;;;;;5098520;28;20195;-59
2022/09/13 01:53:29;;;;;;;15.35;11.45;;;;;;;;;;5097509;28;20208;-59
2022/09/13 01:56:03;;;;;;;23.27;12.38;;;;;;;;;;5097330;28;20202;-59
2022/09/13 01:58:44;;;;;;;15.52;11.38;;;;;;;;;;5097361;28;20233;-59
2022/09/13 02:01:20;;;;;;;17.23;12.07;;;;;;;;;;5096331;28;20543;-59
2022/09/13 02:03:54;;;;;;;17.90;11.55;;;;;;;;;;5097558;28;20531;-59
2022/09/13 02:06:45;;;;;;;15.88;11.40;;;;;;;;;;5096607;28;20198;-59
2022/09/13 02:09:20;;;;;;;15.73;12.38;;;;;;;;;;5097251;28;20580;-59
2022/09/13 02:11:54;;;;;;;17.38;12.73;;;;;;;;;;5097850;28;20248;-59
2022/09/13 02:14:26;;;;;;;17.20;12.07;;;;;;;;;;5096891;28;20642;-59
2022/09/13 02:17:01;;;;;;;18.33;12.57;;;;;;;;;;5096927;28;20229;-59
2022/09/13 02:19:53;;;;;;;16.38;12.13;;;;;;;;;;5096118;28;20238;-59
2022/09/13 02:22:25;;;;;;;18.10;12.32;;;;;;;;;;5092766;28;20210;-59
2022/09/13 02:24:55;;;;;;;15.63;11.93;;;;;;;;;;5096949;28;20203;-59
2022/09/13 02:27:25;;;;;;;14.50;11.23;;;;;;;;;;5095646;28;20277;-59
2022/09/13 02:29:55;;;;;;;15.05;11.90;;;;;;;;;;5096838;28;20222;-59
2022/09/13 02:32:29;;;;;;;16.25;11.48;;;;;;;;;;5102435;28;20218;-59
2022/09/13 02:35:03;;;;;;;15.70;11.88;;;;;;;;;;5108083;28;20623;-59
2022/09/13 02:37:33;;;;;;;16.85;12.00;;;;;;;;;;5095546;28;20585;-59
2022/09/13 02:40:07;;;;;;;16.50;11.98;;;;;;;;;;5096681;28;20191;-59
2022/09/13 02:42:40;;;;;;;14.25;11.02;;;;;;;;;;5095436;28;20204;-59
2022/09/13 02:45:07;;;;;;;18.63;12.07;;;;;;;;;;5095563;28;20286;-59
2022/09/13 02:47:44;;;;;;;16.35;11.02;;;;;;;;;;5096355;28;20267;-59
2022/09/13 02:50:27;;;;;;;15.35;11.73;;;;;;;;;;5095501;28;20516;-59
2022/09/13 02:53:22;;;;;;;18.13;11.35;;;;;;;;;;5096241;28;20194;-59
2022/09/13 02:56:05;;;;;;;13.57;11.10;;;;;;;;;;5096071;28;20612;-59
2022/09/13 02:58:44;;;;;;;13.75;10.57;;;;;;;;;;5096148;28;20301;-59
2022/09/13 03:01:11;;;;;;;16.73;11.02;;;;;;;;;;5096103;28;20281;-59
2022/09/13 03:03:38;;;;;;;14.00;11.02;;;;;;;;;;5096294;28;20206;-59
2022/09/13 03:06:05;;;;;;;16.88;11.77;;;;;;;;;;5096163;28;20214;-59
2022/09/13 03:08:33;;;;;;;16.33;13.35;;;;;;;;;;5096354;28;20213;-59
2022/09/13 03:11:23;;;;;;;16.48;12.95;;;;;;;;;;5095455;28;20279;-59
2022/09/13 03:14:09;;;;;;;14.50;11.13;;;;;;;;;;5095760;28;20214;-60
2022/09/13 03:17:13;;;;;;;15.20;11.00;;;;;;;;;;5096524;28;20191;-59
2022/09/13 03:19:58;;;;;;;13.80;9.27;;;;;;;;;;5094890;28;20229;-58
2022/09/13 03:22:51;;;;;;;13.40;10.52;;;;;;;;;;5095973;28;20210;-59
2022/09/13 03:25:30;;;;;;;11.90;9.82;;;;;;;;;;5095883;28;20222;-59
2022/09/13 03:28:18;;;;;;;12.63;9.98;;;;;;;;;;5095830;28;20528;-58
2022/09/13 03:30:51;;;;;;;12.63;9.65;;;;;;;;;;5095867;28;20198;-59
2022/09/13 03:34:10;;;;;;;13.65;9.93;;;;;;;;;;5094807;28;20678;-59
2022/09/13 03:36:53;;;;;;;14.38;10.18;;;;;;;;;;5053408;28;20196;-59
2022/09/13 03:39:35;;;;;;;12.90;9.85;;;;;;;;;;5052725;28;20220;-59
2022/09/13 03:42:19;;;;;;;11.25;9.30;;;;;;;;;;5053283;28;20196;-59
2022/09/13 03:44:47;;;;;;;13.88;10.07;;;;;;;;;;5053451;28;20200;-59
2022/09/13 03:47:16;;;;;;;14.05;9.65;;;;;;;;;;5053126;28;20203;-59
2022/09/13 03:49:43;;;;;;;12.45;9.50;;;;;;;;;;5052917;28;20270;-59
2022/09/13 03:52:10;;;;;;;10.75;9.02;;;;;;;;;;5052962;28;20200;-59
2022/09/13 03:54:38;;;;;;;12.77;10.18;;;;;;;;;;5052995;28;20215;-60
2022/09/13 03:57:16;;;;;;;14.10;11.05;;;;;;;;;;5052942;28;20321;-59
2022/09/13 03:59:53;;;;;;;14.88;11.13;;;;;;;;;;5052902;28;20227;-60
2022/09/13 04:02:22;;;;;;;15.45;10.85;;;;;;;;;;5036535;28;20546;-62
2022/09/13 04:04:49;;;;;;;17.80;11.85;;;;;;;;;;5058562;28;20262;-60
2022/09/13 04:07:18;;;;;;;14.80;12.45;;;;;;;;;;5067587;28;20230;-60
2022/09/13 04:09:45;;;;;;;15.93;11.57;;;;;;;;;;5070734;28;20711;-62
2022/09/13 04:12:14;;;;;;;16.85;12.38;;;;;;;;;;5088248;28;20236;-60
2022/09/13 04:14:45;;;;;;;14.88;11.70;;;;;;;;;;5110696;28;20225;-58
2022/09/13 04:17:12;;;;;;;17.55;11.88;;;;;;;;;;5101537;28;20568;-59
2022/09/13 04:19:39;;;;;;;16.67;11.77;;;;;;;;;;5113169;28;20226;-59
2022/09/13 04:22:06;;;;;;;15.23;11.48;;;;;;;;;;5114152;28;20228;-59
2022/09/13 04:24:33;;;;;;;17.35;11.82;;;;;;;;;;5114426;28;20221;-58
2022/09/13 04:27:01;;;;;;;14.80;12.05;;;;;;;;;;5103235;28;20237;-60
2022/09/13 04:29:28;;;;;;;16.73;12.35;;;;;;;;;;5109406;28;20233;-59
2022/09/13 04:31:55;;;;;;;13.95;11.65;;;;;;;;;;5114263;27;20229;-59
2022/09/13 04:34:22;;;;;;;17.52;13.05;;;;;;;;;;5113701;28;20222;-59
2022/09/13 04:36:51;;;;;;;16.08;12.48;;;;;;;;;;5114240;27;20230;-59
2022/09/13 04:39:19;;;;;;;18.52;11.63;;;;;;;;;;5113985;28;20249;-59
2022/09/13 04:41:47;;;;;;;14.82;11.43;;;;;;;;;;5114478;27;20222;-59
2022/09/13 04:44:15;;;;;;;13.98;11.30;;;;;;;;;;5103157;28;20261;-59
2022/09/13 04:46:46;;;;;;;15.43;11.82;;;;;;;;;;5093419;28;20658;-59
2022/09/13 04:49:16;;;;;;;15.63;11.52;;;;;;;;;;5093480;28;20238;-53
2022/09/13 04:51:44;;;;;;;16.95;11.50;;;;;;;;;;5098555;28;20248;-54
2022/09/13 04:54:11;;;;;;;16.30;12.00;;;;;;;;;;5116497;28;20214;-53
2022/09/13 04:56:45;;;;;;;18.42;12.48;;;;;;;;;;5111170;28;20201;-53
2022/09/13 04:59:13;;;;;;;18.52;12.63;;;;;;;;;;5117056;27;20210;-50
2022/09/13 05:01:40;;;;;;;18.27;12.60;;;;;;;;;;5114876;28;20190;-51
2022/09/13 05:04:08;;;;;;;21.00;14.13;;;;;;;;;;5117618;28;20263;-52
2022/09/13 05:06:35;;;;;;;18.02;13.65;;;;;;;;;;5117229;27;20194;-56
2022/09/13 05:09:02;;;;;;;19.88;14.02;;;;;;;;;;5117453;28;20198;-52
2022/09/13 05:11:30;;;;;;;18.05;12.63;;;;;;;;;;5118093;28;20572;-51
2022/09/13 05:13:59;;;;;;;19.13;14.38;;;;;;;;;;5118468;28;20202;-55
2022/09/13 05:16:28;;;;;;;18.35;13.13;;;;;;;;;;5118805;28;20288;-49
2022/09/13 05:18:57;;;;;;;21.85;14.15;;;;;;;;;;5113744;28;20225;-51
2022/09/13 05:21:24;;;;;;;21.17;14.60;;;;;;;;;;5119515;27;20190;-56
2022/09/13 05:23:52;;;;;;;18.50;13.52;;;;;;;;;;5127257;27;20201;-57
2022/09/13 05:26:21;;;;;;;18.08;13.63;;;;;;;;;;5126133;27;20198;-50
2022/09/13 05:28:48;;;;;;;19.08;14.52;;;;;;;;;;5123234;27;20301;-56
2022/09/13 05:31:18;;;;;;;22.10;14.30;;;;;;;;;;5121905;27;20194;-52
2022/09/13 05:33:51;;;;;;;17.33;13.55;;;;;;;;;;5115445;28;20211;-51
2022/09/13 05:36:18;;;;;;;17.52;13.48;;;;;;;;;;5118439;28;20202;-52
2022/09/13 05:38:45;;;;;;;17.60;14.23;;;;;;;;;;5117833;28;20217;-54
2022/09/13 05:41:12;;;;;;;19.85;14.95;;;;;;;;;;5117809;28;20205;-55
2022/09/13 05:43:39;;;;;;;19.83;13.52;;;;;;;;;;5117998;28;20293;-55
2022/09/13 05:46:06;;;;;;;19.35;14.88;;;;;;;;;;5117675;28;20283;-52
2022/09/13 05:48:35;;;;;;;14.73;11.88;;;;;;;;;;5117589;28;20587;-53
2022/09/13 05:51:08;;;;;;;19.05;13.30;;;;;;;;;;5117624;28;20209;-53
2022/09/13 05:53:39;;;;;;;16.27;11.65;;;;;;;;;;5118136;28;20201;-51
2022/09/13 05:56:10;;;;;;;14.98;12.65;;;;;;;;;;5117781;28;20198;-53
2022/09/13 05:58:44;;;;;;;16.40;12.88;;;;;;;;;;5117729;28;20230;-50
2022/09/13 06:01:11;;;;;;;21.10;14.05;;;;;;;;;;5116885;28;20661;-53
2022/09/13 06:03:38;;;;;;;13.90;11.88;;;;;;;;;;5117538;28;20239;-51
2022/09/13 06:06:06;;;;;;;15.35;11.70;;;;;;;;;;5117495;28;20206;-57
2022/09/13 06:08:34;;;;;;;14.30;11.80;;;;;;;;;;5117347;28;20580;-57
2022/09/13 06:11:03;;;;;;;16.40;13.18;;;;;;;;;;5117635;28;20202;-53
2022/09/13 06:13:31;;;;;;;15.98;12.38;;;;;;;;;;5117259;28;20646;-53
2022/09/13 06:15:59;;;;;;;15.18;12.35;;;;;;;;;;5117982;28;20198;-54
2022/09/13 06:18:26;;;;;;;17.27;13.00;;;;;;;;;;5117057;28;20204;-54
2022/09/13 06:21:18;;;;;;;14.65;12.10;;;;;;;;;;5117430;28;20642;-53
2022/09/13 06:23:49;;;;;;;18.35;12.70;;;;;;;;;;5117212;28;20630;-55
2022/09/13 06:26:22;;;;;;;15.80;12.90;;;;;;;;;;5117369;28;20210;-55
2022/09/13 06:28:51;;;;;;;18.02;13.13;;;;;;;;;;5117506;28;20209;-52
2022/09/13 06:31:20;;;;;;;16.33;13.10;;;;;;;;;;5117323;28;20217;-53
2022/09/13 06:33:47;;;;;;;13.90;11.48;;;;;;;;;;5116669;28;20225;-51
2022/09/13 06:36:19;;;;;;;13.30;11.13;;;;;;;;;;5116675;28;20235;-51
2022/09/13 06:38:47;;;;;;;16.25;11.95;;;;;;;;;;5116353;28;20229;-53
2022/09/13 06:41:20;;;;;;;13.55;11.07;;;;;;;;;;5116540;28;20212;-53
2022/09/13 06:43:56;;;;;;;14.65;11.95;;;;;;;;;;5117008;28;20194;-54
2022/09/13 06:46:25;;;;;;;15.45;12.43;;;;;;;;;;5116544;28;20300;-54
2022/09/13 06:48:52;;;;;;;13.70;11.68;;;;;;;;;;5116602;28;20558;-54
2022/09/13 06:51:23;;;;;;;14.70;11.57;;;;;;;;;;5116937;28;20198;-51
2022/09/13 06:53:51;;;;;;;14.30;11.15;;;;;;;;;;5116751;28;20210;-54
2022/09/13 06:56:21;;;;;;;14.10;10.60;;;;;;;;;;5116633;28;20205;-50
2022/09/13 06:58:50;;;;;;;17.15;12.32;;;;;;;;;;5116241;28;20241;-51
2022/09/13 07:01:22;;;;;;;16.88;11.38;;;;;;;;;;5116361;28;20680;-53
2022/09/13 07:03:51;;;;;;;12.57;10.75;;;;;;;;;;5116538;28;20213;-51
2022/09/13 07:06:20;;;;;;;16.02;10.63;;;;;;;;;;5116462;27;20239;-51
2022/09/13 07:08:50;;;;;;;13.82;10.48;;;;;;;;;;5116514;28;20194;-52
2022/09/13 07:11:19;;;;;;;11.07;9.38;;;;;;;;;;5116332;28;20213;-53
2022/09/13 07:13:50;;;;;;;12.38;9.15;;;;;;;;;;5115983;28;20216;-56
2022/09/13 07:16:18;;;;;;;13.85;10.10;;;;;;;;;;5116065;28;20231;-54
2022/09/13 07:18:52;;;;;;;13.00;10.27;;;;;;;;;;5116329;27;20206;-51
2022/09/13 07:21:19;;;;;;;12.60;10.30;;;;;;;;;;5116094;28;20197;-51
2022/09/13 07:23:46;;;;;;;13.50;10.38;;;;;;;;;;5115925;28;20531;-49
2022/09/13 07:26:14;;;;;;;12.00;9.63;;;;;;;;;;5115632;28;20208;-54
2022/09/13 07:28:45;;;;;;;11.55;8.30;;;;;;;;;;5115698;28;20647;-52
2022/09/13 07:31:19;;;;;;;11.23;8.52;;;;;;;;;;5116525;28;20221;-55
2022/09/13 07:33:47;;;;;;;8.98;7.40;;;;;;;;;;5115848;28;20198;-55
2022/09/13 07:36:14;;;;;;;9.60;7.75;;;;;;;;;;5115961;28;20198;-51
2022/09/13 07:38:44;;;;;;;8.25;7.00;;;;;;;;;;5115609;28;20202;-52
2022/09/13 07:41:19;;;;;;;8.57;7.32;;;;;;;;;;5115951;28;20285;-50
2022/09/13 07:43:47;;;;;;;11.32;8.27;;;;;;;;;;5115828;28;20198;-52
2022/09/13 07:46:16;;;;;;;10.70;8.95;;;;;;;;;;5115916;27;20296;-53
2022/09/13 07:48:44;;;;;;;11.05;8.52;;;;;;;;;;5115529;28;20302;-49
2022/09/13 07:51:16;;;;;;;8.25;7.38;;;;;;;;;;5116055;28;20273;-57
2022/09/13 07:53:44;;;;;;;8.23;7.13;;;;;;;;;;5115926;28;20566;-53
2022/09/13 07:56:14;;;;;;;9.02;7.00;;;;;;;;;;5115586;28;20258;-53
2022/09/13 07:58:42;;;;;;;7.93;6.97;;;;;;;;;;5115586;28;20221;-51
2022/09/13 08:01:17;;;;;;;9.48;7.07;;;;;;;;;;5115389;28;20287;-51
2022/09/13 08:03:47;;;;;;;8.65;6.60;;;;;;;;;;5114292;28;20201;-53
2022/09/13 08:06:14;;;;;;;6.68;4.88;;;;;;;;;;5114516;28;20206;-52
2022/09/13 08:08:41;;;;;;;5.78;4.47;;;;;;;;;;5115439;28;20229;-52
2022/09/13 08:11:14;;;;;;;5.70;4.40;;;;;;;;;;5115561;28;20202;-53
2022/09/13 08:13:41;;;;;;;4.53;3.38;;;;;;;;;;5097906;28;20209;-53
2022/09/13 08:16:08;;;;;;;4.25;2.63;;;;;;;;;;5115502;28;20205;-53
2022/09/13 08:18:35;;;;;;;4.32;3.70;;;;;;;;;;5114989;28;20636;-53
2022/09/13 08:21:02;;;;;;;3.65;2.78;;;;;;;;;;5115710;28;20236;-51
2022/09/13 08:23:28;;;;;;;3.40;2.70;;;;;;;;;;5115423;28;20226;-53
2022/09/13 08:26:01;;;;;;;3.25;2.80;;;;;;;;;;5119789;28;20540;-52
2022/09/13 08:28:30;;;;;;;3.20;2.83;;;;;;;;;;5119499;27;20210;-53
2022/09/13 08:31:05;;;;;;;5.05;3.80;;;;;;;;;;5119505;28;20209;-53
2022/09/13 08:33:33;;;;;;;5.20;4.18;;;;;;;;;;5119354;28;20280;-55
2022/09/13 08:36:00;;;;;;;5.65;4.88;;;;;;;;;;5119725;28;20226;-52
2022/09/13 08:38:28;;;;;;;4.57;2.75;;;;;;;;;;5119313;28;20584;-51
2022/09/13 08:40:57;;;;;;;3.28;2.90;;;;;;;;;;5119048;28;20266;-54
2022/09/13 08:43:40;;;;;;;2.13;1.92;;;;;;;;;;5119336;28;20216;-54
2022/09/13 08:46:14;;;;;;;3.45;2.92;;;;;;;;;;5119350;28;20250;-55
2022/09/13 08:48:44;;;;;;;3.75;2.92;;;;;;;;;;5119063;28;20233;-52
2022/09/13 08:51:30;;;;;;;4.50;3.78;;;;;;;;;;5118432;28;20650;-53
2022/09/13 08:53:58;;;;;;;4.15;3.17;;;;;;;;;;5119618;28;20194;-54
2022/09/13 08:56:36;;;;;;;1.60;1.50;;;;;;;;;;5118251;28;20205;-51
2022/09/13 08:59:31;;;;;;;4.15;1.45;;;;;;;;;;5117919;28;20680;-55
2022/09/13 09:02:00;;;;;;;1.80;1.33;;;;;;;;;;5118761;28;20194;-53
2022/09/13 09:04:39;;;;;;;1.52;1.42;;;;;;;;;;5119013;28;20206;-53
2022/09/13 09:07:32;;;;;;;4.07;1.77;;;;;;;;;;5118728;28;20190;-55
2022/09/13 09:10:06;;;;;;;4.25;3.58;;;;;;;;;;5117745;28;20210;-52
2022/09/13 09:12:54;;;;;;;4.68;3.65;;;;;;;;;;5101521;28;20201;-53
2022/09/13 09:15:21;;;;;;;5.95;4.15;;;;;;;;;;5118908;28;20217;-51
2022/09/13 09:17:53;;;;;;;4.40;4.00;;;;;;;;;;5118329;28;20205;-52
2022/09/13 09:20:19;;;;;;;6.75;4.65;;;;;;;;;;5118248;28;20663;-53
2022/09/13 09:22:47;;;;;;;5.82;4.07;;;;;;;;;;5118299;28;20218;-55
2022/09/13 09:25:14;;;;;;;5.90;4.50;;;;;;;;;;5117599;28;20259;-54
2022/09/13 09:27:41;;;;;;;4.75;4.10;;;;;;;;;;5118233;28;20630;-54
2022/09/13 09:30:13;;;;;;;5.32;3.75;;;;;;;;;;5118099;28;20236;-53
2022/09/13 09:32:46;;;;;;;4.13;3.70;;;;;;;;;;5118205;28;20658;-52
2022/09/13 09:35:48;;;;;;;3.88;2.58;;;;;;;;;;5116353;28;20195;-52
2022/09/13 09:38:41;;;;;;;2.95;2.22;;;;;;;;;;5096384;28;20206;-51
2022/09/13 09:41:31;;;;;;;2.70;2.20;;;;;;;;;;5096024;28;20226;-53
2022/09/13 09:43:58;;;;;;;4.22;2.55;;;;;;;;;;5096394;28;20202;-52
2022/09/13 09:46:29;;;;;;;3.58;2.75;;;;;;;;;;5096004;28;20199;-53
2022/09/13 09:50:07;;;;;;;2.70;1.80;;;;;;;;;;5079183;28;20227;-55
2022/09/13 09:51:52;;;;;;;2.25;1.90;;;;;;;;;;5095735;28;20206;-54
2022/09/13 09:54:19;;;;;;;4.88;2.10;;;;;;;;;;5078841;28;20256;-53
2022/09/13 09:56:53;;;;;;;2.25;2.00;;;;;;;;;;5079487;28;20272;-50
2022/09/13 09:59:27;;;;;;;2.22;2.03;;;;;;;;;;5095573;28;20592;-51
2022/09/13 10:01:56;;;;;;;2.83;2.05;;;;;;;;;;5095737;28;20209;-52
2022/09/13 10:04:24;;;;;;;1.80;1.70;;;;;;;;;;5078999;28;20236;-52
2022/09/13 10:07:09;;;;;;;1.92;1.48;;;;;;;;;;5078935;28;20631;-54
2022/09/13 10:09:56;;;;;;;1.83;1.50;;;;;;;;;;5095470;28;20585;-53
2022/09/13 10:12:28;;;;;;;1.98;1.48;;;;;;;;;;5095572;28;20301;-53
2022/09/13 10:15:03;;;;;;;1.80;1.60;;;;;;;;;;5115827;28;20206;-54
2022/09/13 10:17:30;;;;;;;2.25;1.10;;;;;;;;;;5117113;28;20201;-53
2022/09/13 10:20:20;;;;;;;1.45;1.23;;;;;;;;;;5117079;28;20286;-53
2022/09/13 10:23:11;;;;;;;1.63;1.33;;;;;;;;;;5117433;28;20285;-55
2022/09/13 10:25:38;;;;;;;2.30;1.17;;;;;;;;;;5117009;28;20248;-50
2022/09/13 10:28:11;;;;;;;5.53;1.30;;;;;;;;;;5117594;28;20258;-54
2022/09/13 10:30:54;;;;;;;1.65;1.25;;;;;;;;;;5117319;28;20295;-52
2022/09/13 10:33:32;;;;;;;1.80;1.00;;;;;;;;;;5116085;28;20202;-53
2022/09/13 10:36:04;;;;;;;1.70;1.00;;;;;;;;;;5117228;28;20292;-53
2022/09/13 10:38:35;;;;;;;2.50;1.42;;;;;;;;;;5117505;28;20214;-55
2022/09/13 10:41:05;;;;;;;1.67;1.20;;;;;;;;;;5116220;28;20685;-53
2022/09/13 10:43:33;;;;;;;2.00;1.23;;;;;;;;;;5116654;28;20699;-54
2022/09/13 10:46:03;;;;;;;1.65;1.30;;;;;;;;;;5116689;28;20198;-56
2022/09/13 10:48:43;;;;;;;2.50;1.33;;;;;;;;;;5114765;28;20283;-52
2022/09/13 10:51:20;;;;;;;1.55;1.20;;;;;;;;;;5113085;28;20288;-53
2022/09/13 10:53:47;;;;;;;3.05;1.20;;;;;;;;;;5114462;28;20589;-53
2022/09/13 10:56:25;;;;;;;1.45;1.15;;;;;;;;;;5115066;28;20205;-54
2022/09/13 10:59:22;;;;;;;1.58;1.20;;;;;;;;;;5113093;28;20285;-54
2022/09/13 11:01:57;;;;;;;2.13;1.38;;;;;;;;;;5112632;28;20217;-51
2022/09/13 11:04:29;;;;;;;3.10;1.20;;;;;;;;;;5115683;28;20189;-53
2022/09/13 11:07:26;;;;;;;1.30;1.20;;;;;;;;;;5112892;28;20213;-53
2022/09/13 11:10:05;;;;;;;1.75;1.40;;;;;;;;;;5087463;28;20635;-52
2022/09/13 11:12:44;;;;;;;1.92;1.27;;;;;;;;;;5114271;28;20254;-51
2022/09/13 11:15:42;;;;;;;2.92;1.50;;;;;;;;;;5114197;28;20206;-55
2022/09/13 11:18:12;;;;;;;2.65;1.85;;;;;;;;;;5114281;28;20194;-51
2022/09/13 11:20:42;;;;;;;1.50;1.40;;;;;;;;;;5114434;28;20246;-52
2022/09/13 11:23:09;;;;;;;3.72;1.60;;;;;;;;;;5114638;28;20197;-53
2022/09/13 11:25:54;;;;;;;3.88;2.00;;;;;;;;;;5114572;28;20640;-50
2022/09/13 11:28:45;;;;;;;3.15;1.90;;;;;;;;;;5112538;28;20284;-54
2022/09/13 11:31:30;;;;;;;3.13;1.67;;;;;;;;;;5112917;28;20634;-52
2022/09/13 11:34:35;;;;;;;2.35;1.58;;;;;;;;;;5114658;28;20201;-54
2022/09/13 11:37:28;;;;;;;3.55;1.55;;;;;;;;;;5112312;28;20201;-57
2022/09/13 11:40:08;;;;;;;1.85;1.63;;;;;;;;;;5114091;28;20257;-54
2022/09/13 11:42:45;;;;;;;1.20;1.10;;;;;;;;;;5112044;28;20223;-58
2022/09/13 11:45:18;;;;;;;2.10;1.45;;;;;;;;;;5114340;28;20190;-58
2022/09/13 11:48:19;;;;;;;1.77;1.42;;;;;;;;;;5114518;28;20571;-59
2022/09/13 11:51:05;;;;;;;1.58;1.13;;;;;;;;;;5112891;28;20197;-58
2022/09/13 11:53:51;;;;;;;3.17;1.23;;;;;;;;;;5113115;28;20194;-58
2022/09/13 11:56:26;;;;;;;1.50;1.10;;;;;;;;;;5111396;28;20182;-58
2022/09/13 11:58:59;;;;;;;1.33;1.10;;;;;;;;;;5112725;28;20197;-58
2022/09/13 12:01:35;;;;;;;3.45;1.13;;;;;;;;;;5113356;28;20233;-58
2022/09/13 12:04:06;;;;;;;1.40;1.10;;;;;;;;;;5111893;28;20567;-58
2022/09/13 12:06:38;;;;;;;2.38;0.95;;;;;;;;;;5113432;28;20508;-58
2022/09/13 12:09:11;;;;;;;1.80;1.17;;;;;;;;;;5113188;28;20269;-58
2022/09/13 12:11:43;;;;;;;1.48;0.95;;;;;;;;;;5110456;28;20218;-57
2022/09/13 12:14:13;;;;;;;1.60;0.73;;;;;;;;;;5112943;28;20615;-58
2022/09/13 12:16:44;;;;;;;1.52;0.80;;;;;;;;;;5111719;28;20190;-58
2022/09/13 12:19:44;;;;;;;1.58;1.27;;;;;;;;;;5114056;28;20197;-58
2022/09/13 12:22:12;;;;;;;1.65;1.10;;;;;;;;;;5105084;28;20256;-59
2022/09/13 12:24:43;;;;;;;2.58;1.30;;;;;;;;;;5110710;28;20194;-58
2022/09/13 12:27:09;;;;;;;2.33;1.20;;;;;;;;;;5098339;28;20222;-58
2022/09/13 12:29:45;;;;;;;2.38;1.40;;;;;;;;;;5111017;28;20256;-58
2022/09/13 12:32:12;;;;;;;1.60;1.30;;;;;;;;;;5112246;28;20221;-59
2022/09/13 12:34:50;;;;;;;1.95;1.30;;;;;;;;;;5101834;28;20305;-57
2022/09/13 12:37:21;;;;;;;3.22;1.45;;;;;;;;;;5101187;28;20228;-58
2022/09/13 12:40:03;;;;;;;2.05;1.48;;;;;;;;;;5114344;28;20195;-58
2022/09/13 12:42:37;;;;;;;1.92;1.25;;;;;;;;;;5106369;27;20229;-58
2022/09/13 12:45:26;;;;;;;2.72;1.35;;;;;;;;;;5111236;28;20209;-57
2022/09/13 12:48:34;;;;;;;1.95;1.08;;;;;;;;;;5111445;28;20666;-58
2022/09/13 12:51:04;;;;;;;1.30;1.10;;;;;;;;;;5067801;28;20280;-58
2022/09/13 12:54:16;;;;;;;1.55;1.20;;;;;;;;;;5069613;28;20215;-58
2022/09/13 12:56:52;;;;;;;5.72;1.33;;;;;;;;;;5037424;28;20243;-59
2022/09/13 12:59:38;;;;;;;2.28;1.50;;;;;;;;;;5048028;28;20230;-58
2022/09/13 13:02:33;;;;;;;2.75;1.40;;;;;;;;;;5048469;28;20326;-58
2022/09/13 13:05:25;;;;;;;1.65;1.33;;;;;;;;;;5040616;28;20726;-58
2022/09/13 13:08:05;;;;;;;1.92;1.60;;;;;;;;;;5043301;28;20228;-58
2022/09/13 13:10:34;;;;;;;2.30;1.70;;;;;;;;;;5051459;28;20673;-58
2022/09/13 13:13:30;;;;;;;1.95;1.45;;;;;;;;;;5052854;28;20220;-58
2022/09/13 13:16:00;;;;;;;1.85;1.45;;;;;;;;;;5053578;28;20725;-56
2022/09/13 13:18:29;;;;;;;2.25;1.35;;;;;;;;;;5053572;28;20228;-58
2022/09/13 13:20:56;;;;;;;4.30;1.80;;;;;;;;;;5053834;28;20274;-58
2022/09/13 13:23:38;;;;;;;2.28;1.60;;;;;;;;;;5053182;28;20254;-57
2022/09/13 13:26:19;;;;;;;2.17;1.50;;;;;;;;;;5053640;28;20234;-58
2022/09/13 13:28:49;;;;;;;1.30;1.17;;;;;;;;;;5052832;28;20224;-57
2022/09/13 13:31:26;;;;;;;1.73;1.55;;;;;;;;;;5101394;28;20271;-57
2022/09/13 13:34:13;;;;;;;3.17;1.50;;;;;;;;;;5116050;28;20221;-58
2022/09/13 13:36:40;;;;;;;2.53;1.48;;;;;;;;;;5112127;28;20222;-58
2022/09/13 13:39:22;;;;;;;3.30;1.90;;;;;;;;;;5111289;28;20213;-58
2022/09/13 13:41:54;;;;;;;1.52;1.25;;;;;;;;;;5115018;28;20229;-57
2022/09/13 13:44:22;;;;;;;3.22;1.58;;;;;;;;;;5113006;27;20214;-57
2022/09/13 13:46:53;;;;;;;3.13;1.83;;;;;;;;;;5110153;27;20308;-59
2022/09/13 13:49:29;;;;;;;2.47;1.70;;;;;;;;;;5112493;27;20233;-58
2022/09/13 13:52:05;;;;;;;2.15;1.77;;;;;;;;;;5115333;28;20225;-58
2022/09/13 13:54:42;;;;;;;3.60;1.92;;;;;;;;;;5115218;27;20638;-58
2022/09/13 13:57:28;;;;;;;2.67;1.83;;;;;;;;;;5112908;28;20275;-58
2022/09/13 14:00:04;;;;;;;2.63;1.52;;;;;;;;;;5103276;28;20296;-58
2022/09/13 14:02:43;;;;;;;4.10;2.20;;;;;;;;;;5108354;28;20280;-58
2022/09/13 14:05:21;;;;;;;3.67;2.20;;;;;;;;;;5098222;28;20246;-57
2022/09/13 14:08:13;;;;;;;2.88;1.65;;;;;;;;;;5114194;28;20255;-58
2022/09/13 14:11:02;;;;;;;5.07;1.90;;;;;;;;;;5116650;27;20222;-58
2022/09/13 14:13:47;;;;;;;1.98;1.75;;;;;;;;;;5115778;28;20565;-58
2022/09/13 14:16:42;;;;;;;3.55;1.88;;;;;;;;;;5116255;27;20222;-58
2022/09/13 14:19:28;;;;;;;4.20;1.88;;;;;;;;;;5116549;27;20222;-58
2022/09/13 14:22:14;;;;;;;2.75;1.60;;;;;;;;;;5115126;28;20750;-58
2022/09/13 14:24:45;;;;;;;3.95;1.63;;;;;;;;;;5115794;28;20225;-58
2022/09/13 14:27:34;;;;;;;3.67;1.50;;;;;;;;;;5115759;28;20217;-58
2022/09/13 14:30:04;;;;;;;3.33;1.63;;;;;;;;;;5116159;28;20585;-58
2022/09/13 14:32:41;;;;;;;3.20;1.67;;;;;;;;;;5115799;28;20232;-58
2022/09/13 14:35:28;;;;;;;3.45;1.60;;;;;;;;;;5115712;28;20681;-58
2022/09/13 14:38:09;;;;;;;3.63;1.52;;;;;;;;;;5116038;28;20257;-58
2022/09/13 14:40:37;;;;;;;3.40;1.90;;;;;;;;;;5115743;28;20225;-58
2022/09/13 14:43:24;;;;;;;2.03;1.55;;;;;;;;;;5115382;28;20608;-58
2022/09/13 14:46:24;;;;;;;2.58;1.42;;;;;;;;;;5115679;28;20588;-58
2022/09/13 14:48:54;;;;;;;3.13;1.70;;;;;;;;;;5114564;28;20276;-58
2022/09/13 14:51:28;;;;;;;3.00;1.80;;;;;;;;;;5115649;28;20533;-59
2022/09/13 14:53:59;;;;;;;1.73;1.55;;;;;;;;;;5114908;28;20730;-58
2022/09/13 14:56:46;;;;;;;2.25;1.75;;;;;;;;;;5110455;28;20612;-58
2022/09/13 14:59:23;;;;;;;3.28;1.90;;;;;;;;;;5097161;28;20313;-58
2022/09/13 15:01:51;;;;;;;2.20;1.73;;;;;;;;;;5094640;28;20689;-58
2022/09/13 15:04:18;;;;;;;2.60;1.85;;;;;;;;;;5093887;28;20279;-59
2022/09/13 15:06:45;;;;;;;3.28;1.85;;;;;;;;;;5094985;28;20226;-58
2022/09/13 15:09:17;;;;;;;4.35;1.70;;;;;;;;;;5095015;28;20222;-58
2022/09/13 15:11:50;;;;;;;5.30;2.50;;;;;;;;;;5093421;28;20683;-55
2022/09/13 15:14:33;;;;;;;14.65;3.90;;;;;;;;;;5094982;28;20246;-58
2022/09/13 15:17:12;;;;;;;2.92;1.58;;;;;;;;;;5094956;28;20589;-58